sensor_id;sensor_type;location;lat;lon;timestamp;P1;durP1;ratioP1;P2;durP2;ratioP2
41881;SDS011;27562;47.524;12.404;2023-05-10T00:01:12;2.28;;;1.27;;
41881;SDS011;27562;47.524;12.404;2023-05-10T00:03:37;1.90;;;1.23;;
41881;SDS011;27562;47.524;12.404;2023-05-10T00:06:03;1.83;;;1.02;;
41881;SDS011;27562;47.524;12.404;2023-05-10T00:08:29;1.67;;;1.00;;
41881;SDS011;27562;47.524;12.404;2023-05-10T00:10:54;2.92;;;1.10;;
41881;SDS011;27562;47.524;12.404;2023-05-10T00:13:20;2.45;;;1.30;;
41881;SDS011;27562;47.524;12.404;2023-05-10T00:15:46;2.28;;;1.20;;
41881;SDS011;27562;47.524;12.404;2023-05-10T00:18:11;3.50;;;1.35;;
41881;SDS011;27562;47.524;12.404;2023-05-10T00:20:37;3.17;;;1.40;;
41881;SDS011;27562;47.524;12.404;2023-05-10T00:23:03;2.45;;;1.23;;
41881;SDS011;27562;47.524;12.404;2023-05-10T00:25:28;1.77;;;1.20;;
41881;SDS011;27562;47.524;12.404;2023-05-10T00:27:54;4.10;;;1.48;;
41881;SDS011;27562;47.524;12.404;2023-05-10T00:30:20;1.60;;;1.00;;
41881;SDS011;27562;47.524;12.404;2023-05-10T00:32:46;2.17;;;1.27;;
41881;SDS011;27562;47.524;12.404;2023-05-10T00:35:13;2.92;;;1.80;;
41881;SDS011;27562;47.524;12.404;2023-05-10T00:37:38;3.20;;;1.83;;
41881;SDS011;27562;47.524;12.404;2023-05-10T00:40:05;4.75;;;2.80;;
41881;SDS011;27562;47.524;12.404;2023-05-10T00:42:31;8.35;;;4.70;;
41881;SDS011;27562;47.524;12.404;2023-05-10T00:44:57;8.27;;;4.53;;
41881;SDS011;27562;47.524;12.404;2023-05-10T00:47:22;8.15;;;4.28;;
41881;SDS011;27562;47.524;12.404;2023-05-10T00:49:48;6.20;;;3.08;;
41881;SDS011;27562;47.524;12.404;2023-05-10T00:52:15;4.80;;;2.20;;
41881;SDS011;27562;47.524;12.404;2023-05-10T00:54:41;3.15;;;1.67;;
41881;SDS011;27562;47.524;12.404;2023-05-10T00:57:07;2.55;;;1.38;;
41881;SDS011;27562;47.524;12.404;2023-05-10T00:59:33;2.35;;;1.55;;
41881;SDS011;27562;47.524;12.404;2023-05-10T01:01:58;2.33;;;1.35;;
41881;SDS011;27562;47.524;12.404;2023-05-10T01:04:24;2.30;;;1.33;;
41881;SDS011;27562;47.524;12.404;2023-05-10T01:06:53;1.70;;;1.02;;
41881;SDS011;27562;47.524;12.404;2023-05-10T01:09:20;1.60;;;1.05;;
41881;SDS011;27562;47.524;12.404;2023-05-10T01:11:46;3.38;;;1.17;;
41881;SDS011;27562;47.524;12.404;2023-05-10T01:14:13;2.95;;;1.10;;
41881;SDS011;27562;47.524;12.404;2023-05-10T01:16:42;2.55;;;1.10;;
41881;SDS011;27562;47.524;12.404;2023-05-10T01:19:12;2.30;;;1.10;;
41881;SDS011;27562;47.524;12.404;2023-05-10T01:21:58;2.20;;;1.02;;
41881;SDS011;27562;47.524;12.404;2023-05-10T01:35:09;1.42;;;0.90;;
41881;SDS011;27562;47.524;12.404;2023-05-10T01:37:59;1.98;;;1.05;;
41881;SDS011;27562;47.524;12.404;2023-05-10T01:40:38;2.00;;;0.98;;
41881;SDS011;27562;47.524;12.404;2023-05-10T01:43:13;3.22;;;1.27;;
41881;SDS011;27562;47.524;12.404;2023-05-10T01:45:50;2.25;;;1.23;;
41881;SDS011;27562;47.524;12.404;2023-05-10T01:48:40;2.10;;;1.08;;
41881;SDS011;27562;47.524;12.404;2023-05-10T01:51:13;1.70;;;1.10;;
41881;SDS011;27562;47.524;12.404;2023-05-10T01:53:46;2.00;;;1.20;;
41881;SDS011;27562;47.524;12.404;2023-05-10T01:56:13;1.70;;;1.10;;
41881;SDS011;27562;47.524;12.404;2023-05-10T01:58:40;1.80;;;1.00;;
41881;SDS011;27562;47.524;12.404;2023-05-10T02:01:11;1.83;;;1.10;;
41881;SDS011;27562;47.524;12.404;2023-05-10T02:03:37;3.22;;;1.10;;
41881;SDS011;27562;47.524;12.404;2023-05-10T02:06:05;3.30;;;1.00;;
41881;SDS011;27562;47.524;12.404;2023-05-10T02:08:32;3.88;;;1.35;;
41881;SDS011;27562;47.524;12.404;2023-05-10T02:11:02;4.57;;;1.00;;
41881;SDS011;27562;47.524;12.404;2023-05-10T02:13:29;2.97;;;1.10;;
41881;SDS011;27562;47.524;12.404;2023-05-10T02:15:57;2.38;;;1.15;;
41881;SDS011;27562;47.524;12.404;2023-05-10T02:18:25;1.98;;;1.30;;
41881;SDS011;27562;47.524;12.404;2023-05-10T02:20:52;1.85;;;1.10;;
41881;SDS011;27562;47.524;12.404;2023-05-10T02:23:22;2.33;;;1.10;;
41881;SDS011;27562;47.524;12.404;2023-05-10T02:25:49;3.25;;;1.40;;
41881;SDS011;27562;47.524;12.404;2023-05-10T02:28:17;2.08;;;1.30;;
41881;SDS011;27562;47.524;12.404;2023-05-10T02:30:44;2.17;;;1.27;;
41881;SDS011;27562;47.524;12.404;2023-05-10T02:33:11;4.88;;;1.70;;
41881;SDS011;27562;47.524;12.404;2023-05-10T02:35:38;3.40;;;2.03;;
41881;SDS011;27562;47.524;12.404;2023-05-10T02:38:05;2.65;;;1.90;;
41881;SDS011;27562;47.524;12.404;2023-05-10T02:40:32;3.05;;;2.20;;
41881;SDS011;27562;47.524;12.404;2023-05-10T02:42:59;4.22;;;2.13;;
41881;SDS011;27562;47.524;12.404;2023-05-10T02:45:29;4.45;;;2.25;;
41881;SDS011;27562;47.524;12.404;2023-05-10T02:47:56;3.55;;;2.35;;
41881;SDS011;27562;47.524;12.404;2023-05-10T02:50:23;3.63;;;2.05;;
41881;SDS011;27562;47.524;12.404;2023-05-10T02:52:53;3.72;;;1.83;;
41881;SDS011;27562;47.524;12.404;2023-05-10T02:55:25;2.05;;;1.58;;
41881;SDS011;27562;47.524;12.404;2023-05-10T02:57:57;3.15;;;1.52;;
41881;SDS011;27562;47.524;12.404;2023-05-10T03:00:25;3.35;;;1.50;;
41881;SDS011;27562;47.524;12.404;2023-05-10T03:02:51;2.50;;;1.55;;
41881;SDS011;27562;47.524;12.404;2023-05-10T03:05:17;2.92;;;1.65;;
41881;SDS011;27562;47.524;12.404;2023-05-10T03:07:43;2.97;;;1.88;;
41881;SDS011;27562;47.524;12.404;2023-05-10T03:10:10;4.32;;;1.92;;
41881;SDS011;27562;47.524;12.404;2023-05-10T03:15:39;2.65;;;1.70;;
41881;SDS011;27562;47.524;12.404;2023-05-10T03:18:13;3.53;;;1.73;;
41881;SDS011;27562;47.524;12.404;2023-05-10T03:20:49;3.17;;;2.30;;
41881;SDS011;27562;47.524;12.404;2023-05-10T03:23:27;4.53;;;3.03;;
41881;SDS011;27562;47.524;12.404;2023-05-10T03:26:05;4.97;;;2.80;;
41881;SDS011;27562;47.524;12.404;2023-05-10T03:28:33;5.57;;;2.30;;
41881;SDS011;27562;47.524;12.404;2023-05-10T03:31:00;3.20;;;2.15;;
41881;SDS011;27562;47.524;12.404;2023-05-10T03:33:27;4.00;;;2.50;;
41881;SDS011;27562;47.524;12.404;2023-05-10T03:35:53;3.72;;;2.05;;
41881;SDS011;27562;47.524;12.404;2023-05-10T03:38:19;3.53;;;1.85;;
41881;SDS011;27562;47.524;12.404;2023-05-10T03:40:45;4.75;;;1.90;;
41881;SDS011;27562;47.524;12.404;2023-05-10T03:43:10;2.63;;;1.75;;
41881;SDS011;27562;47.524;12.404;2023-05-10T03:45:36;3.53;;;1.60;;
41881;SDS011;27562;47.524;12.404;2023-05-10T03:48:02;2.95;;;1.60;;
41881;SDS011;27562;47.524;12.404;2023-05-10T03:50:28;3.50;;;1.60;;
41881;SDS011;27562;47.524;12.404;2023-05-10T03:52:53;2.90;;;1.65;;
41881;SDS011;27562;47.524;12.404;2023-05-10T03:55:19;3.45;;;1.65;;
41881;SDS011;27562;47.524;12.404;2023-05-10T03:57:45;3.53;;;1.65;;
41881;SDS011;27562;47.524;12.404;2023-05-10T04:00:10;2.92;;;1.70;;
41881;SDS011;27562;47.524;12.404;2023-05-10T04:02:36;7.38;;;1.70;;
41881;SDS011;27562;47.524;12.404;2023-05-10T04:05:02;3.20;;;1.73;;
41881;SDS011;27562;47.524;12.404;2023-05-10T04:07:28;2.95;;;1.77;;
41881;SDS011;27562;47.524;12.404;2023-05-10T04:09:54;3.30;;;1.75;;
41881;SDS011;27562;47.524;12.404;2023-05-10T04:12:19;3.58;;;2.00;;
41881;SDS011;27562;47.524;12.404;2023-05-10T04:14:45;2.70;;;1.73;;
41881;SDS011;27562;47.524;12.404;2023-05-10T04:17:11;3.78;;;1.67;;
41881;SDS011;27562;47.524;12.404;2023-05-10T04:19:36;2.55;;;1.55;;
41881;SDS011;27562;47.524;12.404;2023-05-10T04:22:02;2.15;;;1.40;;
41881;SDS011;27562;47.524;12.404;2023-05-10T04:24:28;3.22;;;1.55;;
41881;SDS011;27562;47.524;12.404;2023-05-10T04:26:54;2.97;;;1.75;;
41881;SDS011;27562;47.524;12.404;2023-05-10T04:29:20;4.75;;;1.90;;
41881;SDS011;27562;47.524;12.404;2023-05-10T04:31:46;4.40;;;1.85;;
41881;SDS011;27562;47.524;12.404;2023-05-10T04:34:11;2.95;;;1.80;;
41881;SDS011;27562;47.524;12.404;2023-05-10T04:36:37;3.70;;;1.60;;
41881;SDS011;27562;47.524;12.404;2023-05-10T04:39:03;2.50;;;1.58;;
41881;SDS011;27562;47.524;12.404;2023-05-10T04:41:29;2.40;;;1.50;;
41881;SDS011;27562;47.524;12.404;2023-05-10T04:43:55;2.97;;;1.70;;
41881;SDS011;27562;47.524;12.404;2023-05-10T04:46:20;3.50;;;1.80;;
41881;SDS011;27562;47.524;12.404;2023-05-10T04:48:46;3.30;;;1.50;;
41881;SDS011;27562;47.524;12.404;2023-05-10T04:51:12;4.90;;;1.98;;
41881;SDS011;27562;47.524;12.404;2023-05-10T04:53:38;3.40;;;2.00;;
41881;SDS011;27562;47.524;12.404;2023-05-10T04:56:03;5.15;;;2.30;;
41881;SDS011;27562;47.524;12.404;2023-05-10T04:58:29;5.30;;;2.28;;
41881;SDS011;27562;47.524;12.404;2023-05-10T05:00:55;3.50;;;2.05;;
41881;SDS011;27562;47.524;12.404;2023-05-10T05:03:21;3.42;;;2.15;;
41881;SDS011;27562;47.524;12.404;2023-05-10T05:05:47;3.58;;;2.05;;
41881;SDS011;27562;47.524;12.404;2023-05-10T05:08:13;3.60;;;2.08;;
41881;SDS011;27562;47.524;12.404;2023-05-10T05:10:38;4.78;;;2.03;;
41881;SDS011;27562;47.524;12.404;2023-05-10T05:13:04;3.97;;;1.98;;
41881;SDS011;27562;47.524;12.404;2023-05-10T05:15:30;2.75;;;1.65;;
41881;SDS011;27562;47.524;12.404;2023-05-10T05:17:56;4.40;;;1.80;;
41881;SDS011;27562;47.524;12.404;2023-05-10T05:20:22;2.67;;;1.60;;
41881;SDS011;27562;47.524;12.404;2023-05-10T05:22:47;3.38;;;1.60;;
41881;SDS011;27562;47.524;12.404;2023-05-10T05:25:13;3.30;;;1.58;;
41881;SDS011;27562;47.524;12.404;2023-05-10T05:27:40;3.30;;;1.42;;
41881;SDS011;27562;47.524;12.404;2023-05-10T05:30:06;2.90;;;1.40;;
41881;SDS011;27562;47.524;12.404;2023-05-10T05:32:32;2.53;;;1.52;;
41881;SDS011;27562;47.524;12.404;2023-05-10T05:34:58;2.08;;;1.27;;
41881;SDS011;27562;47.524;12.404;2023-05-10T05:37:24;2.75;;;1.50;;
41881;SDS011;27562;47.524;12.404;2023-05-10T05:39:50;3.05;;;1.77;;
41881;SDS011;27562;47.524;12.404;2023-05-10T05:42:16;2.30;;;1.50;;
41881;SDS011;27562;47.524;12.404;2023-05-10T05:44:43;2.40;;;1.52;;
41881;SDS011;27562;47.524;12.404;2023-05-10T05:47:09;3.38;;;1.60;;
41881;SDS011;27562;47.524;12.404;2023-05-10T05:49:35;2.70;;;1.77;;
41881;SDS011;27562;47.524;12.404;2023-05-10T05:52:01;3.40;;;1.48;;
41881;SDS011;27562;47.524;12.404;2023-05-10T05:54:28;3.05;;;1.50;;
41881;SDS011;27562;47.524;12.404;2023-05-10T05:56:55;2.78;;;1.70;;
41881;SDS011;27562;47.524;12.404;2023-05-10T05:59:21;5.18;;;1.73;;
41881;SDS011;27562;47.524;12.404;2023-05-10T06:01:47;3.58;;;1.63;;
41881;SDS011;27562;47.524;12.404;2023-05-10T06:04:13;2.85;;;1.67;;
41881;SDS011;27562;47.524;12.404;2023-05-10T06:06:38;3.45;;;2.00;;
41881;SDS011;27562;47.524;12.404;2023-05-10T06:09:04;2.85;;;1.58;;
41881;SDS011;27562;47.524;12.404;2023-05-10T06:11:30;4.00;;;1.95;;
41881;SDS011;27562;47.524;12.404;2023-05-10T06:13:57;2.95;;;1.63;;
41881;SDS011;27562;47.524;12.404;2023-05-10T06:16:23;2.88;;;1.45;;
41881;SDS011;27562;47.524;12.404;2023-05-10T06:18:49;2.78;;;1.50;;
41881;SDS011;27562;47.524;12.404;2023-05-10T06:21:14;4.07;;;1.55;;
41881;SDS011;27562;47.524;12.404;2023-05-10T06:23:41;2.47;;;1.50;;
41881;SDS011;27562;47.524;12.404;2023-05-10T06:26:07;2.22;;;1.60;;
41881;SDS011;27562;47.524;12.404;2023-05-10T06:28:32;1.88;;;1.13;;
41881;SDS011;27562;47.524;12.404;2023-05-10T06:30:58;1.98;;;1.38;;
41881;SDS011;27562;47.524;12.404;2023-05-10T06:33:24;2.25;;;1.70;;
41881;SDS011;27562;47.524;12.404;2023-05-10T06:35:50;3.13;;;1.92;;
41881;SDS011;27562;47.524;12.404;2023-05-10T06:38:16;2.85;;;1.92;;
41881;SDS011;27562;47.524;12.404;2023-05-10T06:40:42;2.22;;;1.50;;
41881;SDS011;27562;47.524;12.404;2023-05-10T06:43:08;2.55;;;1.60;;
41881;SDS011;27562;47.524;12.404;2023-05-10T06:45:34;3.45;;;2.10;;
41881;SDS011;27562;47.524;12.404;2023-05-10T06:47:59;2.55;;;1.75;;
41881;SDS011;27562;47.524;12.404;2023-05-10T06:50:26;4.53;;;2.67;;
41881;SDS011;27562;47.524;12.404;2023-05-10T06:52:51;4.55;;;3.15;;
41881;SDS011;27562;47.524;12.404;2023-05-10T06:55:17;3.15;;;1.90;;
41881;SDS011;27562;47.524;12.404;2023-05-10T06:57:43;3.88;;;1.80;;
41881;SDS011;27562;47.524;12.404;2023-05-10T07:00:08;3.53;;;1.70;;
41881;SDS011;27562;47.524;12.404;2023-05-10T07:02:35;4.03;;;1.65;;
41881;SDS011;27562;47.524;12.404;2023-05-10T07:05:01;3.60;;;1.48;;
41881;SDS011;27562;47.524;12.404;2023-05-10T07:07:27;3.20;;;1.30;;
41881;SDS011;27562;47.524;12.404;2023-05-10T07:09:53;2.58;;;1.38;;
41881;SDS011;27562;47.524;12.404;2023-05-10T07:12:19;2.15;;;1.20;;
41881;SDS011;27562;47.524;12.404;2023-05-10T07:14:45;2.10;;;1.20;;
41881;SDS011;27562;47.524;12.404;2023-05-10T07:17:11;2.05;;;1.25;;
41881;SDS011;27562;47.524;12.404;2023-05-10T07:19:37;2.70;;;1.48;;
41881;SDS011;27562;47.524;12.404;2023-05-10T07:22:03;2.67;;;1.50;;
41881;SDS011;27562;47.524;12.404;2023-05-10T07:24:28;4.03;;;1.35;;
41881;SDS011;27562;47.524;12.404;2023-05-10T07:26:56;3.90;;;1.20;;
41881;SDS011;27562;47.524;12.404;2023-05-10T07:29:21;4.30;;;1.20;;
41881;SDS011;27562;47.524;12.404;2023-05-10T07:31:47;1.73;;;1.00;;
41881;SDS011;27562;47.524;12.404;2023-05-10T07:34:13;2.13;;;1.10;;
41881;SDS011;27562;47.524;12.404;2023-05-10T07:36:38;2.47;;;1.30;;
41881;SDS011;27562;47.524;12.404;2023-05-10T07:39:04;4.10;;;1.30;;
41881;SDS011;27562;47.524;12.404;2023-05-10T07:41:30;2.90;;;1.05;;
41881;SDS011;27562;47.524;12.404;2023-05-10T07:43:55;5.70;;;1.95;;
41881;SDS011;27562;47.524;12.404;2023-05-10T07:46:21;7.07;;;3.92;;
41881;SDS011;27562;47.524;12.404;2023-05-10T07:48:47;5.03;;;3.15;;
41881;SDS011;27562;47.524;12.404;2023-05-10T07:51:12;4.47;;;2.40;;
41881;SDS011;27562;47.524;12.404;2023-05-10T07:53:38;4.05;;;1.63;;
41881;SDS011;27562;47.524;12.404;2023-05-10T07:56:20;3.85;;;1.65;;
41881;SDS011;27562;47.524;12.404;2023-05-10T07:58:47;1.50;;;0.93;;
41881;SDS011;27562;47.524;12.404;2023-05-10T08:01:12;2.17;;;0.80;;
41881;SDS011;27562;47.524;12.404;2023-05-10T08:03:38;1.65;;;0.95;;
41881;SDS011;27562;47.524;12.404;2023-05-10T08:06:04;4.43;;;2.42;;
41881;SDS011;27562;47.524;12.404;2023-05-10T08:08:30;6.22;;;3.30;;
41881;SDS011;27562;47.524;12.404;2023-05-10T08:10:56;4.10;;;2.40;;
41881;SDS011;27562;47.524;12.404;2023-05-10T08:13:22;2.53;;;1.00;;
41881;SDS011;27562;47.524;12.404;2023-05-10T08:15:47;2.13;;;0.90;;
41881;SDS011;27562;47.524;12.404;2023-05-10T08:18:13;3.10;;;1.00;;
41881;SDS011;27562;47.524;12.404;2023-05-10T08:20:39;2.92;;;0.93;;
41881;SDS011;27562;47.524;12.404;2023-05-10T08:23:04;1.55;;;0.85;;
41881;SDS011;27562;47.524;12.404;2023-05-10T08:25:31;3.42;;;1.20;;
41881;SDS011;27562;47.524;12.404;2023-05-10T08:27:56;4.57;;;1.50;;
41881;SDS011;27562;47.524;12.404;2023-05-10T08:30:22;1.80;;;1.23;;
41881;SDS011;27562;47.524;12.404;2023-05-10T08:32:48;2.95;;;1.65;;
41881;SDS011;27562;47.524;12.404;2023-05-10T08:35:13;3.42;;;1.83;;
41881;SDS011;27562;47.524;12.404;2023-05-10T08:37:39;4.35;;;1.70;;
41881;SDS011;27562;47.524;12.404;2023-05-10T08:40:05;2.88;;;1.40;;
41881;SDS011;27562;47.524;12.404;2023-05-10T08:42:31;2.85;;;1.42;;
41881;SDS011;27562;47.524;12.404;2023-05-10T08:45:01;2.60;;;1.00;;
41881;SDS011;27562;47.524;12.404;2023-05-10T08:47:28;2.42;;;0.80;;
41881;SDS011;27562;47.524;12.404;2023-05-10T08:49:54;1.95;;;0.80;;
41881;SDS011;27562;47.524;12.404;2023-05-10T08:52:22;2.00;;;1.40;;
41881;SDS011;27562;47.524;12.404;2023-05-10T08:54:51;5.03;;;1.80;;
41881;SDS011;27562;47.524;12.404;2023-05-10T08:57:17;3.00;;;1.27;;
41881;SDS011;27562;47.524;12.404;2023-05-10T08:59:44;2.78;;;0.90;;
41881;SDS011;27562;47.524;12.404;2023-05-10T09:02:10;2.70;;;0.68;;
41881;SDS011;27562;47.524;12.404;2023-05-10T09:04:38;2.33;;;0.70;;
41881;SDS011;27562;47.524;12.404;2023-05-10T09:07:03;2.85;;;0.70;;
41881;SDS011;27562;47.524;12.404;2023-05-10T09:09:29;1.08;;;0.60;;
41881;SDS011;27562;47.524;12.404;2023-05-10T09:11:56;0.95;;;0.40;;
41881;SDS011;27562;47.524;12.404;2023-05-10T09:14:22;1.15;;;0.50;;
41881;SDS011;27562;47.524;12.404;2023-05-10T09:16:49;0.50;;;0.40;;
41881;SDS011;27562;47.524;12.404;2023-05-10T09:19:15;1.23;;;0.68;;
41881;SDS011;27562;47.524;12.404;2023-05-10T09:21:40;2.22;;;0.43;;
41881;SDS011;27562;47.524;12.404;2023-05-10T09:24:07;0.70;;;0.40;;
41881;SDS011;27562;47.524;12.404;2023-05-10T09:26:33;1.40;;;0.60;;
41881;SDS011;27562;47.524;12.404;2023-05-10T09:29:00;1.80;;;0.60;;
41881;SDS011;27562;47.524;12.404;2023-05-10T09:34:11;2.00;;;1.00;;
41881;SDS011;27562;47.524;12.404;2023-05-10T09:36:50;2.58;;;1.20;;
41881;SDS011;27562;47.524;12.404;2023-05-10T09:39:21;1.13;;;0.40;;
41881;SDS011;27562;47.524;12.404;2023-05-10T09:41:56;1.92;;;1.00;;
41881;SDS011;27562;47.524;12.404;2023-05-10T09:44:22;2.53;;;1.00;;
41881;SDS011;27562;47.524;12.404;2023-05-10T09:46:48;1.60;;;0.75;;
41881;SDS011;27562;47.524;12.404;2023-05-10T09:49:15;1.70;;;0.80;;
41881;SDS011;27562;47.524;12.404;2023-05-10T09:51:41;2.60;;;1.80;;
41881;SDS011;27562;47.524;12.404;2023-05-10T09:54:10;1.38;;;0.65;;
41881;SDS011;27562;47.524;12.404;2023-05-10T09:56:40;1.02;;;0.65;;
41881;SDS011;27562;47.524;12.404;2023-05-10T09:59:11;8.80;;;2.20;;
41881;SDS011;27562;47.524;12.404;2023-05-10T10:01:37;3.00;;;0.85;;
41881;SDS011;27562;47.524;12.404;2023-05-10T10:04:04;2.08;;;1.00;;
41881;SDS011;27562;47.524;12.404;2023-05-10T10:06:37;2.50;;;1.42;;
41881;SDS011;27562;47.524;12.404;2023-05-10T10:09:07;1.60;;;0.93;;
41881;SDS011;27562;47.524;12.404;2023-05-10T10:11:34;1.83;;;0.88;;
41881;SDS011;27562;47.524;12.404;2023-05-10T10:14:00;2.45;;;0.70;;
41881;SDS011;27562;47.524;12.404;2023-05-10T10:16:27;1.38;;;0.60;;
41881;SDS011;27562;47.524;12.404;2023-05-10T10:18:55;1.33;;;0.50;;
41881;SDS011;27562;47.524;12.404;2023-05-10T10:21:21;1.63;;;0.50;;
41881;SDS011;27562;47.524;12.404;2023-05-10T10:23:47;0.82;;;0.45;;
41881;SDS011;27562;47.524;12.404;2023-05-10T10:26:13;0.80;;;0.50;;
41881;SDS011;27562;47.524;12.404;2023-05-10T10:28:43;1.13;;;0.57;;
41881;SDS011;27562;47.524;12.404;2023-05-10T10:34:07;1.48;;;0.80;;
41881;SDS011;27562;47.524;12.404;2023-05-10T10:36:43;1.02;;;0.70;;
41881;SDS011;27562;47.524;12.404;2023-05-10T10:39:11;0.85;;;0.57;;
41881;SDS011;27562;47.524;12.404;2023-05-10T10:41:38;0.45;;;0.30;;
41881;SDS011;27562;47.524;12.404;2023-05-10T10:52:13;3.40;;;0.40;;
41881;SDS011;27562;47.524;12.404;2023-05-10T10:54:51;0.60;;;0.30;;
41881;SDS011;27562;47.524;12.404;2023-05-10T10:57:22;2.30;;;0.30;;
41881;SDS011;27562;47.524;12.404;2023-05-10T10:59:48;0.85;;;0.38;;
41881;SDS011;27562;47.524;12.404;2023-05-10T11:02:32;1.95;;;0.50;;
41881;SDS011;27562;47.524;12.404;2023-05-10T11:07:56;1.08;;;0.30;;
41881;SDS011;27562;47.524;12.404;2023-05-10T11:10:24;1.42;;;0.30;;
41881;SDS011;27562;47.524;12.404;2023-05-10T11:13:00;1.10;;;0.20;;
41881;SDS011;27562;47.524;12.404;2023-05-10T11:18:08;0.65;;;0.50;;
41881;SDS011;27562;47.524;12.404;2023-05-10T11:20:52;0.47;;;0.25;;
41881;SDS011;27562;47.524;12.404;2023-05-10T11:23:21;0.52;;;0.30;;
41881;SDS011;27562;47.524;12.404;2023-05-10T11:25:47;0.20;;;0.20;;
41881;SDS011;27562;47.524;12.404;2023-05-10T11:28:16;1.23;;;0.30;;
41881;SDS011;27562;47.524;12.404;2023-05-10T11:30:44;0.55;;;0.28;;
41881;SDS011;27562;47.524;12.404;2023-05-10T11:33:14;0.17;;;0.17;;
41881;SDS011;27562;47.524;12.404;2023-05-10T11:35:44;0.50;;;0.25;;
41881;SDS011;27562;47.524;12.404;2023-05-10T11:38:11;0.60;;;0.30;;
41881;SDS011;27562;47.524;12.404;2023-05-10T11:40:37;0.40;;;0.30;;
41881;SDS011;27562;47.524;12.404;2023-05-10T11:43:04;0.52;;;0.30;;
41881;SDS011;27562;47.524;12.404;2023-05-10T11:45:33;0.75;;;0.30;;
41881;SDS011;27562;47.524;12.404;2023-05-10T11:47:59;0.20;;;0.20;;
41881;SDS011;27562;47.524;12.404;2023-05-10T11:50:25;0.30;;;0.13;;
41881;SDS011;27562;47.524;12.404;2023-05-10T11:52:52;1.00;;;0.50;;
41881;SDS011;27562;47.524;12.404;2023-05-10T11:55:19;1.08;;;0.35;;
41881;SDS011;27562;47.524;12.404;2023-05-10T11:57:45;0.50;;;0.30;;
41881;SDS011;27562;47.524;12.404;2023-05-10T12:00:14;0.57;;;0.30;;
41881;SDS011;27562;47.524;12.404;2023-05-10T12:02:40;0.93;;;0.32;;
41881;SDS011;27562;47.524;12.404;2023-05-10T12:05:06;2.35;;;0.30;;
41881;SDS011;27562;47.524;12.404;2023-05-10T12:07:32;0.60;;;0.30;;
41881;SDS011;27562;47.524;12.404;2023-05-10T12:10:08;1.63;;;0.65;;
41881;SDS011;27562;47.524;12.404;2023-05-10T12:12:42;0.50;;;0.40;;
41881;SDS011;27562;47.524;12.404;2023-05-10T12:15:20;0.73;;;0.32;;
41881;SDS011;27562;47.524;12.404;2023-05-10T12:17:47;0.63;;;0.20;;
41881;SDS011;27562;47.524;12.404;2023-05-10T12:20:21;0.40;;;0.20;;
41881;SDS011;27562;47.524;12.404;2023-05-10T12:22:49;1.02;;;0.22;;
41881;SDS011;27562;47.524;12.404;2023-05-10T12:25:17;0.45;;;0.20;;
41881;SDS011;27562;47.524;12.404;2023-05-10T12:27:47;0.50;;;0.20;;
41881;SDS011;27562;47.524;12.404;2023-05-10T12:30:18;1.05;;;0.30;;
41881;SDS011;27562;47.524;12.404;2023-05-10T12:32:48;0.77;;;0.25;;
41881;SDS011;27562;47.524;12.404;2023-05-10T12:35:13;0.60;;;0.20;;
41881;SDS011;27562;47.524;12.404;2023-05-10T12:37:41;0.32;;;0.30;;
41881;SDS011;27562;47.524;12.404;2023-05-10T12:40:07;0.60;;;0.30;;
41881;SDS011;27562;47.524;12.404;2023-05-10T12:42:35;0.50;;;0.30;;
41881;SDS011;27562;47.524;12.404;2023-05-10T12:45:01;0.73;;;0.20;;
41881;SDS011;27562;47.524;12.404;2023-05-10T12:47:27;0.88;;;0.30;;
41881;SDS011;27562;47.524;12.404;2023-05-10T12:49:53;0.40;;;0.20;;
41881;SDS011;27562;47.524;12.404;2023-05-10T12:52:19;0.47;;;0.28;;
41881;SDS011;27562;47.524;12.404;2023-05-10T12:54:45;0.20;;;0.17;;
41881;SDS011;27562;47.524;12.404;2023-05-10T12:57:12;0.20;;;0.20;;
41881;SDS011;27562;47.524;12.404;2023-05-10T12:59:38;0.50;;;0.20;;
41881;SDS011;27562;47.524;12.404;2023-05-10T13:02:04;1.92;;;0.22;;
41881;SDS011;27562;47.524;12.404;2023-05-10T13:04:30;0.73;;;0.22;;
41881;SDS011;27562;47.524;12.404;2023-05-10T13:06:56;0.98;;;0.30;;
41881;SDS011;27562;47.524;12.404;2023-05-10T13:09:24;0.65;;;0.30;;
41881;SDS011;27562;47.524;12.404;2023-05-10T13:11:51;1.40;;;0.55;;
41881;SDS011;27562;47.524;12.404;2023-05-10T13:14:18;0.30;;;0.20;;
41881;SDS011;27562;47.524;12.404;2023-05-10T13:16:45;1.65;;;0.35;;
41881;SDS011;27562;47.524;12.404;2023-05-10T13:19:12;0.55;;;0.30;;
41881;SDS011;27562;47.524;12.404;2023-05-10T13:21:38;11.35;;;6.28;;
41881;SDS011;27562;47.524;12.404;2023-05-10T13:24:05;2.80;;;1.77;;
41881;SDS011;27562;47.524;12.404;2023-05-10T13:26:31;3.53;;;1.30;;
41881;SDS011;27562;47.524;12.404;2023-05-10T13:28:57;2.25;;;0.80;;
41881;SDS011;27562;47.524;12.404;2023-05-10T13:31:23;2.05;;;1.05;;
41881;SDS011;27562;47.524;12.404;2023-05-10T13:33:49;10.82;;;5.47;;
41881;SDS011;27562;47.524;12.404;2023-05-10T13:36:15;5.75;;;3.80;;
41881;SDS011;27562;47.524;12.404;2023-05-10T13:38:40;4.57;;;2.08;;
41881;SDS011;27562;47.524;12.404;2023-05-10T13:41:06;3.75;;;2.17;;
41881;SDS011;27562;47.524;12.404;2023-05-10T13:43:31;6.35;;;3.75;;
41881;SDS011;27562;47.524;12.404;2023-05-10T13:45:57;13.02;;;8.88;;
41881;SDS011;27562;47.524;12.404;2023-05-10T13:48:23;9.45;;;6.70;;
41881;SDS011;27562;47.524;12.404;2023-05-10T13:50:49;5.15;;;3.40;;
41881;SDS011;27562;47.524;12.404;2023-05-10T13:53:14;2.28;;;1.40;;
41881;SDS011;27562;47.524;12.404;2023-05-10T13:55:40;1.80;;;1.10;;
41881;SDS011;27562;47.524;12.404;2023-05-10T13:58:06;0.82;;;0.63;;
41881;SDS011;27562;47.524;12.404;2023-05-10T14:00:32;0.95;;;0.50;;
41881;SDS011;27562;47.524;12.404;2023-05-10T14:02:57;1.48;;;1.08;;
41881;SDS011;27562;47.524;12.404;2023-05-10T14:05:23;1.75;;;0.70;;
41881;SDS011;27562;47.524;12.404;2023-05-10T14:07:49;1.42;;;0.60;;
41881;SDS011;27562;47.524;12.404;2023-05-10T14:10:15;2.00;;;0.70;;
41881;SDS011;27562;47.524;12.404;2023-05-10T14:12:41;1.60;;;0.63;;
41881;SDS011;27562;47.524;12.404;2023-05-10T14:15:07;1.10;;;0.50;;
41881;SDS011;27562;47.524;12.404;2023-05-10T14:17:35;1.10;;;0.35;;
41881;SDS011;27562;47.524;12.404;2023-05-10T14:20:01;1.35;;;0.50;;
41881;SDS011;27562;47.524;12.404;2023-05-10T14:22:27;2.13;;;0.40;;
41881;SDS011;27562;47.524;12.404;2023-05-10T14:24:52;0.95;;;0.50;;
41881;SDS011;27562;47.524;12.404;2023-05-10T14:27:18;0.90;;;0.25;;
41881;SDS011;27562;47.524;12.404;2023-05-10T14:29:44;2.78;;;0.60;;
41881;SDS011;27562;47.524;12.404;2023-05-10T14:32:10;3.35;;;0.50;;
41881;SDS011;27562;47.524;12.404;2023-05-10T14:34:35;2.17;;;0.40;;
41881;SDS011;27562;47.524;12.404;2023-05-10T14:37:01;0.93;;;0.40;;
41881;SDS011;27562;47.524;12.404;2023-05-10T14:39:27;1.02;;;0.43;;
41881;SDS011;27562;47.524;12.404;2023-05-10T14:41:55;1.08;;;0.30;;
41881;SDS011;27562;47.524;12.404;2023-05-10T14:44:21;1.25;;;0.30;;
41881;SDS011;27562;47.524;12.404;2023-05-10T14:46:46;0.57;;;0.22;;
41881;SDS011;27562;47.524;12.404;2023-05-10T14:49:13;0.95;;;0.50;;
41881;SDS011;27562;47.524;12.404;2023-05-10T14:51:39;2.63;;;1.02;;
41881;SDS011;27562;47.524;12.404;2023-05-10T14:54:04;1.90;;;1.00;;
41881;SDS011;27562;47.524;12.404;2023-05-10T14:56:30;2.95;;;0.93;;
41881;SDS011;27562;47.524;12.404;2023-05-10T14:58:57;2.90;;;1.20;;
41881;SDS011;27562;47.524;12.404;2023-05-10T15:01:22;1.83;;;0.85;;
41881;SDS011;27562;47.524;12.404;2023-05-10T15:03:48;1.73;;;0.43;;
41881;SDS011;27562;47.524;12.404;2023-05-10T15:06:14;1.55;;;0.70;;